createdAt,value
2018-08-19T00:00:19.575Z,11.80
2018-08-19T00:01:19.696Z,14.00
2018-08-19T00:02:19.581Z,14.20
2018-08-19T00:03:19.846Z,15.00
2018-08-19T00:04:19.600Z,14.40
2018-08-19T00:05:19.625Z,15.30
2018-08-19T00:06:19.763Z,15.00
2018-08-19T00:07:19.766Z,14.80
2018-08-19T00:08:19.801Z,15.20
2018-08-19T00:09:19.666Z,16.30
2018-08-19T00:10:19.682Z,17.40
2018-08-19T00:11:19.693Z,18.40
2018-08-19T00:12:19.827Z,19.00
2018-08-19T00:13:20.024Z,18.90
2018-08-19T00:14:19.744Z,20.00
2018-08-19T00:15:19.751Z,20.90
2018-08-19T00:16:19.815Z,19.80
2018-08-19T00:17:19.765Z,21.90
2018-08-19T00:18:20.112Z,20.60
2018-08-19T00:19:19.918Z,22.00
2018-08-19T00:20:19.929Z,23.10
2018-08-19T00:21:19.940Z,23.50
2018-08-19T00:22:19.835Z,23.90
2018-08-19T00:23:20.153Z,23.40
2018-08-19T00:24:19.875Z,22.80
2018-08-19T00:25:19.863Z,24.20
2018-08-19T00:26:19.884Z,25.00
2018-08-19T00:27:20.018Z,25.40
2018-08-19T00:28:20.275Z,26.60
2018-08-19T00:29:20.042Z,26.20
2018-08-19T00:30:20.057Z,27.50
2018-08-19T00:31:19.928Z,26.00
2018-08-19T00:32:19.954Z,27.00
2018-08-19T00:33:20.177Z,26.50
2018-08-19T00:34:19.982Z,26.10
2018-08-19T00:35:20.033Z,25.60
2018-08-19T00:36:19.994Z,26.60
2018-08-19T00:37:20.020Z,26.30
2018-08-19T00:38:20.233Z,26.10
2018-08-19T00:39:20.057Z,26.70
2018-08-19T00:40:20.175Z,25.50
2018-08-19T00:41:20.070Z,26.20
2018-08-19T00:42:20.200Z,26.30
2018-08-19T00:43:20.288Z,26.30
2018-08-19T00:44:20.100Z,27.60
2018-08-19T00:45:20.106Z,27.70
2018-08-19T00:46:20.251Z,27.10
2018-08-19T00:47:20.266Z,27.50
2018-08-19T00:48:20.407Z,26.70
2018-08-19T00:49:20.283Z,27.90
2018-08-19T00:50:20.296Z,28.20
2018-08-19T00:51:20.180Z,28.10
2018-08-19T00:52:20.215Z,28.10
2018-08-19T00:53:20.369Z,27.20
2018-08-19T00:54:20.224Z,27.50
2018-08-19T00:55:20.362Z,26.70
2018-08-19T00:56:20.377Z,26.70
2018-08-19T00:57:20.253Z,25.80
2018-08-19T00:58:20.280Z,25.70
2018-08-19T00:59:20.555Z,24.80
2018-08-19T01:00:20.344Z,23.80
2018-08-19T01:01:20.311Z,23.70
2018-08-19T01:02:20.452Z,24.50
2018-08-19T01:03:20.456Z,25.40
2018-08-19T01:04:20.727Z,24.80
2018-08-19T01:05:20.487Z,24.90
2018-08-19T01:06:20.378Z,26.90
2018-08-19T01:07:20.505Z,25.10
2018-08-19T01:08:20.518Z,27.10
2018-08-19T01:09:20.536Z,25.60
2018-08-19T01:10:20.573Z,27.20
2018-08-19T01:11:20.437Z,26.70
2018-08-19T01:12:20.444Z,28.00
2018-08-19T01:13:20.456Z,29.10
2018-08-19T01:14:20.475Z,29.20
2018-08-19T01:15:20.738Z,29.20
2018-08-19T01:16:20.490Z,32.20
2018-08-19T01:17:20.630Z,29.60
2018-08-19T01:18:20.641Z,29.80
2018-08-19T01:19:20.527Z,31.50
2018-08-19T01:20:20.819Z,28.50
2018-08-19T01:21:20.807Z,29.80
2018-08-19T01:22:20.567Z,30.10
2018-08-19T01:23:20.702Z,31.50
2018-08-19T01:24:20.598Z,31.40
2018-08-19T01:25:20.606Z,33.10
2018-08-19T01:26:20.867Z,32.20
2018-08-19T01:27:20.753Z,31.70
2018-08-19T01:28:20.650Z,32.80
2018-08-19T01:29:20.658Z,32.90
2018-08-19T01:30:20.667Z,33.40
2018-08-19T01:31:20.835Z,32.70
2018-08-19T01:32:21.067Z,34.00
2018-08-19T01:33:20.710Z,32.90
2018-08-19T01:34:20.722Z,32.80
2018-08-19T01:35:20.853Z,34.70
2018-08-19T01:36:20.733Z,35.30
2018-08-19T01:37:21.129Z,34.90
2018-08-19T01:38:20.892Z,35.80
2018-08-19T01:39:20.896Z,35.20
2018-08-19T01:40:20.789Z,34.60
2018-08-19T01:41:20.925Z,35.60
2018-08-19T01:42:21.101Z,34.40
2018-08-19T01:43:20.833Z,33.60
2018-08-19T01:44:20.963Z,34.80
2018-08-19T01:45:20.977Z,36.70
2018-08-19T01:46:20.984Z,38.10
2018-08-19T01:47:21.170Z,38.60
2018-08-19T01:48:21.009Z,36.40
2018-08-19T01:49:21.021Z,37.00
2018-08-19T01:50:20.907Z,37.90
2018-08-19T01:51:20.938Z,36.90
2018-08-19T01:52:21.185Z,37.50
2018-08-19T01:53:20.987Z,37.00
2018-08-19T01:54:20.965Z,35.70
2018-08-19T01:55:21.007Z,37.20
2018-08-19T01:56:20.989Z,37.60
2018-08-19T01:57:21.009Z,37.20
2018-08-19T01:58:21.155Z,37.20
2018-08-19T01:59:21.275Z,36.50
2018-08-19T02:00:21.028Z,36.80
2018-08-19T02:01:21.175Z,37.20
2018-08-19T02:02:21.186Z,37.80
2018-08-19T02:03:21.075Z,37.40
2018-08-19T02:04:21.453Z,36.60
2018-08-19T02:05:21.097Z,37.10
2018-08-19T02:06:21.236Z,37.30
2018-08-19T02:07:21.126Z,38.20
2018-08-19T02:08:21.253Z,36.80
2018-08-19T02:09:21.147Z,36.50
2018-08-19T02:10:21.417Z,36.20
2018-08-19T02:11:21.210Z,37.20
2018-08-19T02:12:21.184Z,38.20
2018-08-19T02:13:21.235Z,36.00
2018-08-19T02:14:21.208Z,36.40
2018-08-19T02:15:21.589Z,36.00
2018-08-19T02:16:21.236Z,36.50
2018-08-19T02:17:21.229Z,36.30
2018-08-19T02:18:21.382Z,36.50
2018-08-19T02:19:21.388Z,36.10
2018-08-19T02:20:21.417Z,34.00
2018-08-19T02:21:21.538Z,36.30
2018-08-19T02:22:21.432Z,35.60
2018-08-19T02:23:21.316Z,36.40
2018-08-19T02:24:21.326Z,36.60
2018-08-19T02:25:21.345Z,36.60
2018-08-19T02:26:21.605Z,38.10
2018-08-19T02:27:21.364Z,37.10
2018-08-19T02:28:21.512Z,38.50
2018-08-19T02:29:21.518Z,39.50
2018-08-19T02:30:21.410Z,39.10
2018-08-19T02:31:21.415Z,38.20
2018-08-19T02:32:21.807Z,41.00
2018-08-19T02:33:21.442Z,39.80
2018-08-19T02:34:21.490Z,38.70
2018-08-19T02:35:21.583Z,39.90
2018-08-19T02:36:21.523Z,39.30
2018-08-19T02:37:21.809Z,37.50
2018-08-19T02:38:21.542Z,36.00
2018-08-19T02:39:21.636Z,33.60
2018-08-19T02:40:21.529Z,35.40
2018-08-19T02:41:21.537Z,36.80
2018-08-19T02:42:21.700Z,35.70
2018-08-19T02:43:21.556Z,35.40
2018-08-19T02:44:21.695Z,34.10
2018-08-19T02:45:21.831Z,34.80
2018-08-19T02:46:21.597Z,35.70
2018-08-19T02:47:21.603Z,32.50
2018-08-19T02:48:21.748Z,33.10
2018-08-19T02:49:21.677Z,32.80
2018-08-19T02:50:22.023Z,32.30
2018-08-19T02:51:21.654Z,30.40
2018-08-19T02:52:21.679Z,31.30
2018-08-19T02:53:21.695Z,30.30
2018-08-19T02:54:21.818Z,31.60
2018-08-19T02:55:21.983Z,31.20
2018-08-19T02:56:21.844Z,34.20
2018-08-19T02:57:21.738Z,37.30
2018-08-19T02:58:21.875Z,36.90
2018-08-19T02:59:21.884Z,36.20
2018-08-19T03:00:22.151Z,35.20
2018-08-19T03:01:21.788Z,33.60
2018-08-19T03:02:21.811Z,33.50
2018-08-19T03:03:21.844Z,32.70
2018-08-19T03:04:21.940Z,33.20
2018-08-19T03:05:21.961Z,32.60
2018-08-19T03:06:22.089Z,31.80
2018-08-19T03:07:21.842Z,32.60
2018-08-19T03:08:21.992Z,32.30
2018-08-19T03:09:21.877Z,32.10
2018-08-19T03:10:21.892Z,33.00
2018-08-19T03:11:21.912Z,32.00
2018-08-19T03:12:22.214Z,32.50
2018-08-19T03:13:21.924Z,31.50
2018-08-19T03:14:21.958Z,32.50
2018-08-19T03:15:21.994Z,32.80
2018-08-19T03:16:22.000Z,31.50
2018-08-19T03:17:21.992Z,29.70
2018-08-19T03:18:22.240Z,30.20
2018-08-19T03:19:22.127Z,33.00
2018-08-19T03:20:22.138Z,31.20
2018-08-19T03:21:22.164Z,33.60
2018-08-19T03:22:22.030Z,33.00
2018-08-19T03:23:22.043Z,32.10
2018-08-19T03:24:22.184Z,31.90
2018-08-19T03:25:22.072Z,31.50
2018-08-19T03:26:22.215Z,31.30
2018-08-19T03:27:22.229Z,30.80
2018-08-19T03:28:22.110Z,29.50
2018-08-19T03:29:22.124Z,29.50
2018-08-19T03:30:22.271Z,30.80
2018-08-19T03:31:22.272Z,30.90
2018-08-19T03:32:22.163Z,31.00
2018-08-19T03:33:22.171Z,31.80
2018-08-19T03:34:22.186Z,33.10
2018-08-19T03:35:22.318Z,32.90
2018-08-19T03:36:22.517Z,32.50
2018-08-19T03:37:22.218Z,30.90
2018-08-19T03:38:22.238Z,32.10
2018-08-19T03:39:22.289Z,30.30
2018-08-19T03:40:22.264Z,33.00
2018-08-19T03:41:22.643Z,31.30
2018-08-19T03:42:22.325Z,31.00
2018-08-19T03:43:22.299Z,32.60
2018-08-19T03:44:22.352Z,32.10
2018-08-19T03:45:22.448Z,32.30
2018-08-19T03:46:22.461Z,31.70
2018-08-19T03:47:22.622Z,33.80
2018-08-19T03:48:22.480Z,33.40
2018-08-19T03:49:22.363Z,33.00
2018-08-19T03:50:22.381Z,33.50
2018-08-19T03:51:22.820Z,34.00
2018-08-19T03:52:22.534Z,34.90
2018-08-19T03:53:22.543Z,35.60
2018-08-19T03:54:22.554Z,34.30
2018-08-19T03:55:22.446Z,33.10
2018-08-19T03:56:22.697Z,35.40
2018-08-19T03:57:22.463Z,35.10
2018-08-19T03:58:22.483Z,33.20
2018-08-19T03:59:22.488Z,33.70
2018-08-19T04:00:22.504Z,33.20
2018-08-19T04:01:22.760Z,34.70
2018-08-19T04:02:22.655Z,35.60
2018-08-19T04:03:22.536Z,35.70
2018-08-19T04:04:22.549Z,34.70
2018-08-19T04:05:22.552Z,36.20
2018-08-19T04:06:22.822Z,36.50
2018-08-19T04:07:22.579Z,36.40
2018-08-19T04:08:22.727Z,36.30
2018-08-19T04:09:22.732Z,35.60
2018-08-19T04:10:22.627Z,35.80
2018-08-19T04:11:22.940Z,36.00
2018-08-19T04:12:22.641Z,36.20
2018-08-19T04:13:22.654Z,36.00
2018-08-19T04:14:22.668Z,37.40
2018-08-19T04:15:22.684Z,36.20
2018-08-19T04:16:23.072Z,35.80
2018-08-19T04:17:22.754Z,36.80
2018-08-19T04:18:22.724Z,37.90
2018-08-19T04:19:22.725Z,36.90
2018-08-19T04:20:22.748Z,36.80
2018-08-19T04:21:23.033Z,39.20
2018-08-19T04:22:22.773Z,37.00
2018-08-19T04:23:22.781Z,37.80
2018-08-19T04:24:23.038Z,38.10
2018-08-19T04:25:22.934Z,36.70
2018-08-19T04:26:22.958Z,39.00
2018-08-19T04:27:22.827Z,38.60
2018-08-19T04:28:22.849Z,37.80
2018-08-19T04:29:23.230Z,38.00
2018-08-19T04:30:22.991Z,37.60
2018-08-19T04:31:22.877Z,37.60
2018-08-19T04:32:23.011Z,36.50
2018-08-19T04:33:22.912Z,37.20
2018-08-19T04:34:23.338Z,36.50
2018-08-19T04:35:22.929Z,38.20
2018-08-19T04:36:22.949Z,37.90
2018-08-19T04:37:23.076Z,37.20
2018-08-19T04:38:23.083Z,39.30
2018-08-19T04:39:23.098Z,38.40
2018-08-19T04:40:23.292Z,38.90
2018-08-19T04:41:23.008Z,38.10
2018-08-19T04:42:23.071Z,38.90
2018-08-19T04:43:23.017Z,38.40
2018-08-19T04:44:23.162Z,38.50
2018-08-19T04:45:23.310Z,40.00
2018-08-19T04:46:23.058Z,38.90
2018-08-19T04:47:23.067Z,38.90
2018-08-19T04:48:23.087Z,39.70
2018-08-19T04:49:23.095Z,39.90
2018-08-19T04:50:23.112Z,38.60
2018-08-19T04:51:23.492Z,37.90
2018-08-19T04:52:23.128Z,39.10
2018-08-19T04:53:23.265Z,40.50
2018-08-19T04:54:23.285Z,41.00
2018-08-19T04:55:23.174Z,41.90
2018-08-19T04:56:23.173Z,39.80
2018-08-19T04:57:23.445Z,40.30
2018-08-19T04:58:23.329Z,41.10
2018-08-19T04:59:23.336Z,40.10
2018-08-19T05:00:23.224Z,40.50
2018-08-19T05:01:23.368Z,39.60
2018-08-19T05:02:23.675Z,38.90
2018-08-19T05:03:23.270Z,38.60
2018-08-19T05:04:23.286Z,40.10
2018-08-19T05:05:23.275Z,39.90
2018-08-19T05:06:23.426Z,40.90
2018-08-19T05:07:23.592Z,40.10
2018-08-19T05:08:23.713Z,41.30
2018-08-19T05:09:23.468Z,39.60
2018-08-19T05:10:23.482Z,40.90
2018-08-19T05:11:23.361Z,41.30
2018-08-19T05:12:23.506Z,39.40
2018-08-19T05:13:23.635Z,37.90
2018-08-19T05:14:23.523Z,38.20
2018-08-19T05:15:23.462Z,38.70
2018-08-19T05:16:23.548Z,38.90
2018-08-19T05:17:23.442Z,39.10
2018-08-19T05:18:23.747Z,36.90
2018-08-19T05:19:23.477Z,33.60
2018-08-19T05:20:23.480Z,36.70
2018-08-19T05:21:23.609Z,35.80
2018-08-19T05:22:23.518Z,36.70
2018-08-19T05:23:23.834Z,36.50
2018-08-19T05:24:23.653Z,35.20
2018-08-19T05:25:23.665Z,35.80
2018-08-19T05:26:23.678Z,34.70
2018-08-19T05:27:23.683Z,35.20
2018-08-19T05:28:24.022Z,33.70
2018-08-19T05:29:23.594Z,34.10
2018-08-19T05:30:23.598Z,34.80
2018-08-19T05:31:23.636Z,32.60
2018-08-19T05:32:23.637Z,34.50
2018-08-19T05:33:23.935Z,35.10
2018-08-19T05:34:23.773Z,33.40
2018-08-19T05:35:23.664Z,35.00
2018-08-19T05:36:23.797Z,34.40
2018-08-19T05:37:23.692Z,34.00
2018-08-19T05:38:23.860Z,34.80
2018-08-19T05:39:23.761Z,34.20
2018-08-19T05:40:23.721Z,31.40
2018-08-19T05:41:23.857Z,32.30
2018-08-19T05:42:23.754Z,33.10
2018-08-19T05:43:24.003Z,34.20
2018-08-19T05:44:23.780Z,32.80
2018-08-19T05:45:23.907Z,33.10
2018-08-19T05:46:23.818Z,34.50
2018-08-19T05:47:23.814Z,31.60
2018-08-19T05:48:24.080Z,30.90
2018-08-19T05:49:23.842Z,32.00
2018-08-19T05:50:23.854Z,32.10
2018-08-19T05:51:23.983Z,32.20
2018-08-19T05:52:23.871Z,32.40
2018-08-19T05:53:24.131Z,31.60
2018-08-19T05:54:23.897Z,31.80
2018-08-19T05:55:24.031Z,31.60
2018-08-19T05:56:23.919Z,31.90
2018-08-19T05:57:23.940Z,30.70
2018-08-19T05:58:24.368Z,31.90
2018-08-19T05:59:24.088Z,31.80
2018-08-19T06:00:23.971Z,31.50
2018-08-19T06:01:24.104Z,30.50
2018-08-19T06:02:24.003Z,30.70
2018-08-19T06:03:24.331Z,30.90
2018-08-19T06:04:24.144Z,30.60
2018-08-19T06:05:24.072Z,32.30
2018-08-19T06:06:24.048Z,32.20
2018-08-19T06:07:24.098Z,32.30
2018-08-19T06:08:24.228Z,31.30
2018-08-19T06:09:24.083Z,32.00
2018-08-19T06:10:24.090Z,31.30
2018-08-19T06:11:24.306Z,31.80
2018-08-19T06:12:24.246Z,33.10
2018-08-19T06:13:24.255Z,31.70
2018-08-19T06:14:24.271Z,32.50
2018-08-19T06:15:24.161Z,32.40
2018-08-19T06:16:24.498Z,31.00
2018-08-19T06:17:24.192Z,32.70
2018-08-19T06:18:24.206Z,31.60
2018-08-19T06:19:24.207Z,32.70
2018-08-19T06:20:24.344Z,32.60
2018-08-19T06:21:24.490Z,31.30
2018-08-19T06:22:24.246Z,31.30
2018-08-19T06:23:24.290Z,32.30
2018-08-19T06:24:24.280Z,31.70
2018-08-19T06:25:24.402Z,32.80
2018-08-19T06:26:24.451Z,31.00
2018-08-19T06:27:24.547Z,33.50
2018-08-19T06:28:24.443Z,32.80
2018-08-19T06:29:24.449Z,33.10
2018-08-19T06:30:24.461Z,33.00
2018-08-19T06:31:24.474Z,33.70
2018-08-19T06:32:24.692Z,32.80
2018-08-19T06:33:24.505Z,33.00
2018-08-19T06:34:24.562Z,33.80
2018-08-19T06:35:24.524Z,33.50
2018-08-19T06:36:24.470Z,33.90
2018-08-19T06:37:24.634Z,33.80
2018-08-19T06:38:24.477Z,31.90
2018-08-19T06:39:24.452Z,33.70
2018-08-19T06:40:24.590Z,32.90
2018-08-19T06:41:24.603Z,32.90
2018-08-19T06:42:24.681Z,33.70
2018-08-19T06:43:24.626Z,33.80
2018-08-19T06:44:24.634Z,34.60
2018-08-19T06:45:24.515Z,35.40
2018-08-19T06:46:24.530Z,34.20
2018-08-19T06:47:24.918Z,34.00
2018-08-19T06:48:24.562Z,33.80
2018-08-19T06:49:24.700Z,34.30
2018-08-19T06:50:24.706Z,36.60
2018-08-19T06:51:24.723Z,36.60
2018-08-19T06:52:24.857Z,36.10
2018-08-19T06:53:24.624Z,36.40
2018-08-19T06:54:24.625Z,35.30
2018-08-19T06:55:24.639Z,36.10
2018-08-19T06:56:24.655Z,35.70
2018-08-19T06:57:24.881Z,37.60
2018-08-19T06:58:24.682Z,37.00
2018-08-19T06:59:24.823Z,36.40
2018-08-19T07:00:24.710Z,37.10
2018-08-19T07:01:24.711Z,36.60
2018-08-19T07:02:24.921Z,37.10
2018-08-19T07:03:24.754Z,37.10
2018-08-19T07:04:24.793Z,36.80
2018-08-19T07:05:24.770Z,37.70
2018-08-19T07:06:24.773Z,36.80
2018-08-19T07:07:24.790Z,36.30
2018-08-19T07:08:25.182Z,37.90
2018-08-19T07:09:24.938Z,36.70
2018-08-19T07:10:24.818Z,35.30
2018-08-19T07:11:24.965Z,35.90
2018-08-19T07:12:24.978Z,36.10
2018-08-19T07:13:25.071Z,37.20
2018-08-19T07:14:24.871Z,36.60
2018-08-19T07:15:24.897Z,36.60
2018-08-19T07:16:24.932Z,37.60
2018-08-19T07:17:24.924Z,38.00
2018-08-19T07:18:25.052Z,36.10
2018-08-19T07:19:25.073Z,35.20
2018-08-19T07:20:24.946Z,36.70
2018-08-19T07:21:25.000Z,39.30
2018-08-19T07:22:24.972Z,36.00
2018-08-19T07:23:25.111Z,36.30
2018-08-19T07:24:25.253Z,37.10
2018-08-19T07:25:25.129Z,38.30
2018-08-19T07:26:25.035Z,38.00
2018-08-19T07:27:25.151Z,39.00
2018-08-19T07:28:25.052Z,40.00
2018-08-19T07:29:25.432Z,37.60
2018-08-19T07:30:25.073Z,38.60
2018-08-19T07:31:25.075Z,39.70
2018-08-19T07:32:25.220Z,39.30
2018-08-19T07:33:25.104Z,39.20
2018-08-19T07:34:25.359Z,39.90
2018-08-19T07:35:25.254Z,40.30
2018-08-19T07:36:25.127Z,40.50
2018-08-19T07:37:25.155Z,38.90
2018-08-19T07:38:25.152Z,38.40
2018-08-19T07:39:25.450Z,39.20
2018-08-19T07:40:25.191Z,40.00
2018-08-19T07:41:25.323Z,40.90
2018-08-19T07:42:25.219Z,41.30
2018-08-19T07:43:25.238Z,41.50
2018-08-19T07:44:25.488Z,42.70
2018-08-19T07:45:25.369Z,42.10
2018-08-19T07:46:25.269Z,43.20
2018-08-19T07:47:25.279Z,42.50
2018-08-19T07:48:25.292Z,40.60
2018-08-19T07:49:25.645Z,42.10
2018-08-19T07:50:25.309Z,40.40
2018-08-19T07:51:25.329Z,43.00
2018-08-19T07:52:25.326Z,42.40
2018-08-19T07:53:25.464Z,43.00
2018-08-19T07:54:25.599Z,41.30
2018-08-19T07:55:25.487Z,41.80
2018-08-19T07:56:25.371Z,42.50
2018-08-19T07:57:25.391Z,43.50
2018-08-19T07:58:25.410Z,41.50
2018-08-19T07:59:25.662Z,44.70
2018-08-19T08:00:25.548Z,41.50
2018-08-19T08:01:25.546Z,42.70
2018-08-19T08:02:25.571Z,42.30
2018-08-19T08:03:25.459Z,42.00
2018-08-19T08:04:25.595Z,42.80
2018-08-19T08:05:25.688Z,41.90
2018-08-19T08:06:25.536Z,41.80
2018-08-19T08:07:25.507Z,41.90
2018-08-19T08:08:25.521Z,40.00
2018-08-19T08:09:25.533Z,41.70
2018-08-19T08:10:25.798Z,41.70
2018-08-19T08:11:25.547Z,42.20
2018-08-19T08:12:25.576Z,40.70
2018-08-19T08:13:25.584Z,40.70
2018-08-19T08:14:25.718Z,42.50
2018-08-19T08:15:25.897Z,41.60
2018-08-19T08:16:25.612Z,42.20
2018-08-19T08:17:25.623Z,42.20
2018-08-19T08:18:25.758Z,40.10
2018-08-19T08:19:25.771Z,41.60
2018-08-19T08:20:25.914Z,41.40
2018-08-19T08:21:25.780Z,42.90
2018-08-19T08:22:25.677Z,41.20
2018-08-19T08:23:25.727Z,40.90
2018-08-19T08:24:25.754Z,42.60
2018-08-19T08:25:25.966Z,41.00
2018-08-19T08:26:25.855Z,41.60
2018-08-19T08:27:25.868Z,42.50
2018-08-19T08:28:25.752Z,41.20
2018-08-19T08:29:25.768Z,42.10
2018-08-19T08:30:25.931Z,40.60
2018-08-19T08:31:25.911Z,42.90
2018-08-19T08:32:26.124Z,43.20
2018-08-19T08:33:25.932Z,42.70
2018-08-19T08:34:25.941Z,44.30
2018-08-19T08:35:25.842Z,43.60
2018-08-19T08:36:25.848Z,43.30
2018-08-19T08:37:26.105Z,45.60
2018-08-19T08:38:25.993Z,41.00
2018-08-19T08:39:25.879Z,43.60
2018-08-19T08:40:26.014Z,44.50
2018-08-19T08:41:26.031Z,42.80
2018-08-19T08:42:26.213Z,43.30
2018-08-19T08:43:25.926Z,44.00
2018-08-19T08:44:26.062Z,43.10
2018-08-19T08:45:26.090Z,43.90
2018-08-19T08:46:25.955Z,42.20
2018-08-19T08:47:26.384Z,42.70
2018-08-19T08:48:25.988Z,43.90
2018-08-19T08:49:26.005Z,43.30
2018-08-19T08:50:26.050Z,42.40
2018-08-19T08:51:26.046Z,43.10
2018-08-19T08:52:26.232Z,43.50
2018-08-19T08:53:26.175Z,44.60
2018-08-19T08:54:26.068Z,43.30
2018-08-19T08:55:26.200Z,45.40
2018-08-19T08:56:26.222Z,44.20
2018-08-19T08:57:26.377Z,48.20
2018-08-19T08:58:26.103Z,44.90
2018-08-19T08:59:26.245Z,45.50
2018-08-19T09:00:26.250Z,46.80
2018-08-19T09:01:26.270Z,48.10
2018-08-19T09:02:26.425Z,47.60
2018-08-19T09:03:26.289Z,46.50
2018-08-19T09:04:26.175Z,47.70
2018-08-19T09:05:26.310Z,48.60
2018-08-19T09:06:26.197Z,47.10
2018-08-19T09:07:26.467Z,46.40
2018-08-19T09:08:26.355Z,47.70
2018-08-19T09:09:26.240Z,46.20
2018-08-19T09:10:26.251Z,48.50
2018-08-19T09:11:26.257Z,48.00
2018-08-19T09:12:26.599Z,46.60
2018-08-19T09:13:26.289Z,47.90
2018-08-19T09:14:26.296Z,47.70
2018-08-19T09:15:26.428Z,48.80
2018-08-19T09:16:26.319Z,47.80
2018-08-19T09:17:26.640Z,49.20
2018-08-19T09:18:26.337Z,48.90
2018-08-19T09:19:26.408Z,49.40
2018-08-19T09:20:26.486Z,50.90
2018-08-19T09:21:26.370Z,48.30
2018-08-19T09:22:26.534Z,49.00
2018-08-19T09:23:26.510Z,49.90
2018-08-19T09:24:26.536Z,50.00
2018-08-19T09:25:26.841Z,48.00
2018-08-19T09:26:26.440Z,49.60
2018-08-19T09:27:26.449Z,48.20
2018-08-19T09:28:26.454Z,49.50
2018-08-19T09:29:26.459Z,49.70
2018-08-19T09:30:26.750Z,49.40
2018-08-19T09:31:26.493Z,49.00
2018-08-19T09:32:26.625Z,48.90
2018-08-19T09:33:26.639Z,47.90
2018-08-19T09:34:26.652Z,50.30
2018-08-19T09:35:30.770Z,48.40
2018-08-19T09:36:26.544Z,50.20
2018-08-19T09:37:26.566Z,50.40
2018-08-19T09:38:26.585Z,49.70
2018-08-19T09:39:26.712Z,48.50
2018-08-19T09:40:26.747Z,49.00
2018-08-19T09:41:26.915Z,49.50
2018-08-19T09:42:26.613Z,50.00
2018-08-19T09:43:26.752Z,48.00
2018-08-19T09:44:26.638Z,47.90
2018-08-19T09:45:26.774Z,49.00
2018-08-19T09:46:26.918Z,45.60
2018-08-19T09:47:26.719Z,47.10
2018-08-19T09:48:26.687Z,46.00
2018-08-19T09:49:26.702Z,45.40
2018-08-19T09:50:26.701Z,46.80
2018-08-19T09:51:26.969Z,47.10
2018-08-19T09:52:26.737Z,47.40
2018-08-19T09:53:26.742Z,45.20
2018-08-19T09:54:26.774Z,46.70
2018-08-19T09:55:26.759Z,47.10
2018-08-19T09:56:27.156Z,45.30
2018-08-19T09:57:26.797Z,47.30
2018-08-19T09:58:26.931Z,47.00
2018-08-19T09:59:26.934Z,46.00
2018-08-19T10:00:26.828Z,45.60
2018-08-19T10:01:27.169Z,46.30
2018-08-19T10:02:26.975Z,46.90
2018-08-19T10:03:26.858Z,47.60
2018-08-19T10:04:26.995Z,45.80
2018-08-19T10:05:26.885Z,45.60
2018-08-19T10:06:27.222Z,45.30
2018-08-19T10:07:26.998Z,45.30
2018-08-19T10:08:26.914Z,46.20
2018-08-19T10:09:26.939Z,44.40
2018-08-19T10:10:26.942Z,45.80
2018-08-19T10:11:26.958Z,42.80
2018-08-19T10:12:27.341Z,43.70
2018-08-19T10:13:26.986Z,45.30
2018-08-19T10:14:27.117Z,47.30
2018-08-19T10:15:27.002Z,45.30
2018-08-19T10:16:27.013Z,46.10
2018-08-19T10:17:27.023Z,44.90
2018-08-19T10:18:27.185Z,45.10
2018-08-19T10:19:27.263Z,45.70
2018-08-19T10:20:27.068Z,44.50
2018-08-19T10:21:27.077Z,45.40
2018-08-19T10:22:27.212Z,44.30
2018-08-19T10:23:27.101Z,43.30
2018-08-19T10:24:27.437Z,45.70
2018-08-19T10:25:27.248Z,45.30
2018-08-19T10:26:27.276Z,43.40
2018-08-19T10:27:27.151Z,43.80
2018-08-19T10:28:27.282Z,43.50
2018-08-19T10:29:27.167Z,42.40
2018-08-19T10:30:27.384Z,42.20
2018-08-19T10:31:27.332Z,42.30
2018-08-19T10:32:27.209Z,42.80
2018-08-19T10:33:27.242Z,42.30
2018-08-19T10:34:27.232Z,42.40
2018-08-19T10:35:27.238Z,42.60
2018-08-19T10:36:27.609Z,40.80
2018-08-19T10:37:27.267Z,40.90
2018-08-19T10:38:27.280Z,41.60
2018-08-19T10:39:27.295Z,42.80
2018-08-19T10:40:27.312Z,42.40
2018-08-19T10:41:27.572Z,41.00
2018-08-19T10:42:27.462Z,40.70
2018-08-19T10:43:27.353Z,41.10
2018-08-19T10:44:27.490Z,42.50
2018-08-19T10:45:27.498Z,42.80
2018-08-19T10:46:27.516Z,41.80
2018-08-19T10:47:27.606Z,40.50
2018-08-19T10:48:27.545Z,41.30
2018-08-19T10:49:27.548Z,41.50
2018-08-19T10:50:27.445Z,40.10
2018-08-19T10:51:27.454Z,40.30
2018-08-19T10:52:27.789Z,41.00
2018-08-19T10:53:27.566Z,40.70
2018-08-19T10:54:27.532Z,40.60
2018-08-19T10:55:27.520Z,41.50
2018-08-19T10:56:27.641Z,42.70
2018-08-19T10:57:27.914Z,42.40
2018-08-19T10:58:27.685Z,41.40
2018-08-19T10:59:27.684Z,40.80
2018-08-19T11:00:27.571Z,41.70
2018-08-19T11:01:27.592Z,40.20
2018-08-19T11:02:27.797Z,40.40
2018-08-19T11:03:27.617Z,39.40
2018-08-19T11:04:27.641Z,40.70
2018-08-19T11:05:27.643Z,40.30
2018-08-19T11:06:27.666Z,38.60
2018-08-19T11:07:27.878Z,39.90
2018-08-19T11:08:27.673Z,38.80
2018-08-19T11:09:27.709Z,38.20
2018-08-19T11:10:27.713Z,39.50
2018-08-19T11:11:27.851Z,39.10
2018-08-19T11:12:27.961Z,41.80
2018-08-19T11:13:27.891Z,39.80
2018-08-19T11:14:27.778Z,40.60
2018-08-19T11:15:27.912Z,41.40
2018-08-19T11:16:27.804Z,41.00
2018-08-19T11:17:27.965Z,40.40
2018-08-19T11:18:27.828Z,39.10
2018-08-19T11:19:27.841Z,40.00
2018-08-19T11:20:27.861Z,39.30
2018-08-19T11:21:28.119Z,37.20
2018-08-19T11:22:27.906Z,37.70
2018-08-19T11:23:28.027Z,37.70
2018-08-19T11:24:27.922Z,35.70
2018-08-19T11:25:27.937Z,34.70
2018-08-19T11:26:28.152Z,33.30
2018-08-19T11:27:27.986Z,35.30
2018-08-19T11:28:28.028Z,33.20
2018-08-19T11:29:27.994Z,31.80
2018-08-19T11:30:28.018Z,32.10
2018-08-19T11:31:28.419Z,32.20
2018-08-19T11:32:28.175Z,33.00
2018-08-19T11:33:28.062Z,33.80
2018-08-19T11:34:28.080Z,33.40
2018-08-19T11:35:28.109Z,32.30
2018-08-19T11:36:28.387Z,32.70
2018-08-19T11:37:28.133Z,31.70
2018-08-19T11:38:28.401Z,32.80
2018-08-19T11:39:28.293Z,34.10
2018-08-19T11:40:28.188Z,33.60
2018-08-19T11:41:28.232Z,34.40
2018-08-19T11:42:28.240Z,34.50
2018-08-19T11:43:28.340Z,34.00
2018-08-19T11:44:28.499Z,33.40
2018-08-19T11:45:28.396Z,33.80
2018-08-19T11:46:28.295Z,35.60
2018-08-19T11:47:28.306Z,31.60
2018-08-19T11:48:28.327Z,32.70
2018-08-19T11:49:28.718Z,32.60
2018-08-19T11:50:28.372Z,31.10
2018-08-19T11:51:28.501Z,31.70
2018-08-19T11:52:28.514Z,32.60
2018-08-19T11:53:28.414Z,32.60
2018-08-19T11:54:28.425Z,32.60
2018-08-19T11:55:28.635Z,32.40
2018-08-19T11:56:28.470Z,33.00
2018-08-19T11:57:28.482Z,31.40
2018-08-19T11:58:28.493Z,32.00
2018-08-19T11:59:28.554Z,32.20
2018-08-19T12:00:28.784Z,34.30
2018-08-19T12:01:28.672Z,33.90
2018-08-19T12:02:28.691Z,32.80
2018-08-19T12:03:28.583Z,33.00
2018-08-19T12:04:28.597Z,32.20
2018-08-19T12:05:28.932Z,34.30
2018-08-19T12:06:28.762Z,32.80
2018-08-19T12:07:28.667Z,33.20
2018-08-19T12:08:28.681Z,35.50
2018-08-19T12:09:28.688Z,34.20
2018-08-19T12:10:28.987Z,33.30
2018-08-19T12:11:28.847Z,33.70
2018-08-19T12:12:28.746Z,36.00
2018-08-19T12:13:29.021Z,35.40
2018-08-19T12:14:28.908Z,35.30
2018-08-19T12:15:28.787Z,34.90
2018-08-19T12:16:28.816Z,35.20
2018-08-19T12:17:28.957Z,35.50
2018-08-19T12:18:29.124Z,37.00
2018-08-19T12:19:28.857Z,36.50
2018-08-19T12:20:28.881Z,35.60
2018-08-19T12:21:29.021Z,34.80
2018-08-19T12:22:29.168Z,34.60
2018-08-19T12:23:28.942Z,34.90
2018-08-19T12:24:28.965Z,35.20
2018-08-19T12:25:29.090Z,36.10
2018-08-19T12:26:28.969Z,35.00
2018-08-19T12:27:29.170Z,34.60
2018-08-19T12:28:29.264Z,35.00
2018-08-19T12:29:29.030Z,35.90
2018-08-19T12:30:29.043Z,35.50
2018-08-19T12:31:29.062Z,35.50
2018-08-19T12:32:29.089Z,35.20
2018-08-19T12:33:29.286Z,35.30
2018-08-19T12:34:29.115Z,33.40
2018-08-19T12:35:29.433Z,35.60
2018-08-19T12:36:29.269Z,36.40
2018-08-19T12:37:29.186Z,37.20
2018-08-19T12:38:29.189Z,38.40
2018-08-19T12:39:29.188Z,36.20
2018-08-19T12:40:29.460Z,37.20
2018-08-19T12:41:29.239Z,37.70
2018-08-19T12:42:29.246Z,36.60
2018-08-19T12:43:29.263Z,37.80
2018-08-19T12:44:29.269Z,37.70
2018-08-19T12:45:29.505Z,37.60
2018-08-19T12:46:29.310Z,36.20
2018-08-19T12:47:29.330Z,38.00
2018-08-19T12:48:29.467Z,36.30
2018-08-19T12:49:29.483Z,38.10
2018-08-19T12:50:29.753Z,38.70
2018-08-19T12:51:29.451Z,37.70
2018-08-19T12:52:29.531Z,38.30